createdAt,value
2018-05-09T00:01:34.386Z,15.50
2018-05-09T00:04:04.024Z,15.40
2018-05-09T00:06:33.052Z,15.40
2018-05-09T00:09:01.901Z,15.40
2018-05-09T00:11:30.987Z,15.40
2018-05-09T00:13:59.978Z,15.30
2018-05-09T00:16:28.926Z,15.30
2018-05-09T00:18:58.624Z,15.20
2018-05-09T00:21:27.539Z,15.20
2018-05-09T00:23:56.469Z,15.20
2018-05-09T00:26:26.912Z,15.10
2018-05-09T00:28:55.968Z,15.10
2018-05-09T00:31:24.954Z,15.10
2018-05-09T00:33:53.923Z,15.00
2018-05-09T00:36:22.921Z,15.00
2018-05-09T00:38:51.891Z,15.00
2018-05-09T00:41:20.916Z,15.00
2018-05-09T00:43:50.595Z,14.90
2018-05-09T00:46:19.533Z,14.80
2018-05-09T00:48:48.453Z,14.80
2018-05-09T00:51:17.369Z,14.80
2018-05-09T00:53:47.084Z,14.70
2018-05-09T00:56:16.769Z,14.60
2018-05-09T00:58:45.796Z,14.60
2018-05-09T01:01:15.477Z,14.50
2018-05-09T01:03:44.396Z,14.50
2018-05-09T01:06:14.086Z,14.40
2018-05-09T01:08:43.772Z,14.40
2018-05-09T01:11:12.784Z,14.30
2018-05-09T01:13:41.673Z,14.40
2018-05-09T01:16:10.658Z,14.30
2018-05-09T01:18:39.575Z,14.30
2018-05-09T01:21:09.203Z,14.20
2018-05-09T01:23:38.080Z,14.20
2018-05-09T01:26:07.099Z,14.20
2018-05-09T01:28:35.995Z,14.20
2018-05-09T01:31:05.088Z,14.10
2018-05-09T01:33:34.090Z,14.10
2018-05-09T01:36:03.231Z,14.10
2018-05-09T01:38:32.239Z,14.10
2018-05-09T01:41:01.261Z,14.10
2018-05-09T01:43:30.157Z,14.10
2018-05-09T01:45:59.179Z,14.00
2018-05-09T01:48:29.158Z,14.00
2018-05-09T01:50:58.231Z,14.00
2018-05-09T01:53:27.170Z,14.00
2018-05-09T01:55:56.083Z,14.00
2018-05-09T01:58:25.718Z,13.90
2018-05-09T02:00:54.613Z,13.80
2018-05-09T02:03:23.602Z,13.80
2018-05-09T02:05:52.483Z,13.80
2018-05-09T02:08:21.378Z,13.80
2018-05-09T02:10:50.398Z,13.70
2018-05-09T02:13:19.330Z,13.70
2018-05-09T02:15:49.051Z,13.50
2018-05-09T02:18:19.001Z,13.40
2018-05-09T02:20:48.786Z,13.30
2018-05-09T02:23:18.470Z,13.20
2018-05-09T02:25:48.200Z,13.20
2018-05-09T02:28:17.943Z,13.00
2018-05-09T02:30:46.873Z,13.00
2018-05-09T02:33:15.812Z,12.90
2018-05-09T02:35:44.723Z,12.90
2018-05-09T02:38:13.664Z,12.80
2018-05-09T02:40:43.320Z,12.70
2018-05-09T02:43:12.350Z,12.60
2018-05-09T02:45:41.271Z,12.70
2018-05-09T02:48:10.213Z,12.60
2018-05-09T02:50:39.116Z,12.60
2018-05-09T02:53:08.127Z,12.60
2018-05-09T02:55:37.867Z,12.50
2018-05-09T02:58:06.811Z,12.50
2018-05-09T03:00:35.743Z,12.50
2018-05-09T03:03:04.685Z,12.50
2018-05-09T03:05:34.372Z,12.50
2018-05-09T03:08:03.263Z,12.50
2018-05-09T03:10:32.218Z,12.50
2018-05-09T03:13:01.175Z,12.50
2018-05-09T03:15:30.080Z,12.50
2018-05-09T03:17:58.975Z,12.50
2018-05-09T03:20:27.981Z,12.50
2018-05-09T03:22:57.653Z,12.50
2018-05-09T03:25:26.553Z,12.50
2018-05-09T03:27:55.462Z,12.50
2018-05-09T03:30:25.154Z,12.40
2018-05-09T03:32:54.874Z,12.40
2018-05-09T03:35:24.599Z,12.40
2018-05-09T03:37:53.535Z,12.30
2018-05-09T03:40:22.518Z,12.30
2018-05-09T03:42:51.418Z,12.20
2018-05-09T03:45:20.322Z,12.20
2018-05-09T03:47:50.077Z,12.10
2018-05-09T03:50:19.254Z,12.10
2018-05-09T03:52:48.276Z,12.00
2018-05-09T03:55:17.273Z,12.00
2018-05-09T03:57:46.262Z,12.00
2018-05-09T04:00:15.221Z,11.90
2018-05-09T04:02:55.995Z,11.90
2018-05-09T04:05:36.674Z,11.90
2018-05-09T04:08:17.893Z,11.80
2018-05-09T04:10:47.129Z,11.80
2018-05-09T04:13:16.864Z,11.80
2018-05-09T04:15:46.355Z,11.90
2018-05-09T04:18:16.966Z,11.90
2018-05-09T04:20:46.471Z,11.90
2018-05-09T04:23:15.357Z,11.90
2018-05-09T04:25:45.598Z,12.00
2018-05-09T04:28:15.908Z,12.00
2018-05-09T04:30:45.129Z,12.10
2018-05-09T04:33:15.741Z,12.10
2018-05-09T04:35:44.889Z,12.10
2018-05-09T04:38:13.781Z,12.20
2018-05-09T04:40:42.710Z,12.20
2018-05-09T04:43:11.680Z,12.30
2018-05-09T04:45:40.589Z,12.30
2018-05-09T04:48:09.523Z,12.40
2018-05-09T04:50:38.423Z,12.50
2018-05-09T04:53:07.414Z,12.60
2018-05-09T04:55:36.494Z,12.70
2018-05-09T04:58:05.331Z,12.70
2018-05-09T05:00:34.327Z,12.90
2018-05-09T05:03:03.863Z,13.00
2018-05-09T05:05:32.792Z,13.00
2018-05-09T05:08:01.703Z,13.10
2018-05-09T05:10:30.591Z,13.20
2018-05-09T05:12:59.530Z,13.30
2018-05-09T05:15:28.438Z,13.40
2018-05-09T05:17:57.340Z,13.50
2018-05-09T05:20:26.212Z,13.50
2018-05-09T05:22:55.103Z,13.60
2018-05-09T05:25:23.994Z,13.70
2018-05-09T05:27:52.910Z,13.80
2018-05-09T05:30:21.869Z,13.90
2018-05-09T05:32:50.853Z,14.00
2018-05-09T05:35:19.650Z,14.00
2018-05-09T05:37:48.576Z,14.10
2018-05-09T05:40:17.427Z,14.20
2018-05-09T05:42:46.411Z,14.30
2018-05-09T05:45:15.395Z,14.30
2018-05-09T05:47:44.195Z,14.40
2018-05-09T05:50:13.183Z,14.40
2018-05-09T05:52:42.050Z,14.60
2018-05-09T05:55:10.963Z,14.60
2018-05-09T05:57:39.885Z,14.70
2018-05-09T06:00:08.754Z,14.80
2018-05-09T06:02:37.737Z,14.90
2018-05-09T06:05:06.614Z,15.00
2018-05-09T06:07:35.586Z,15.10
2018-05-09T06:10:05.208Z,15.20
2018-05-09T06:12:34.088Z,15.10
2018-05-09T06:15:03.744Z,15.20
2018-05-09T06:17:32.640Z,15.20
2018-05-09T06:20:01.547Z,15.30
2018-05-09T06:22:31.302Z,15.40
2018-05-09T06:25:00.187Z,15.40
2018-05-09T06:27:29.119Z,15.50
2018-05-09T06:30:00.761Z,15.50
2018-05-09T06:32:29.667Z,15.50
2018-05-09T06:34:59.330Z,15.60
2018-05-09T06:37:28.318Z,15.60
2018-05-09T06:39:57.227Z,15.60
2018-05-09T06:42:26.108Z,15.70
2018-05-09T06:44:55.661Z,15.70
2018-05-09T06:47:25.320Z,15.80
2018-05-09T06:49:54.311Z,15.80
2018-05-09T06:52:23.131Z,15.90
2018-05-09T06:54:52.027Z,15.90
2018-05-09T06:57:20.903Z,16.00
2018-05-09T06:59:49.801Z,16.10
2018-05-09T07:02:18.751Z,16.10
2018-05-09T07:04:47.631Z,16.20
2018-05-09T07:07:16.541Z,16.30
2018-05-09T07:09:45.415Z,16.40
2018-05-09T07:12:14.277Z,16.40
2018-05-09T07:14:43.184Z,16.40
2018-05-09T07:17:12.082Z,16.50
2018-05-09T07:19:40.996Z,16.50
2018-05-09T07:22:09.912Z,16.60
2018-05-09T07:24:38.852Z,16.60
2018-05-09T07:27:07.763Z,16.60
2018-05-09T07:29:36.667Z,16.70
2018-05-09T07:32:05.627Z,16.80
2018-05-09T07:34:34.602Z,16.80
2018-05-09T07:37:03.484Z,16.80
2018-05-09T07:39:32.372Z,16.90
2018-05-09T07:42:01.239Z,16.90
2018-05-09T07:44:30.901Z,17.00
2018-05-09T07:46:59.800Z,17.00
2018-05-09T07:49:28.716Z,17.00
2018-05-09T07:51:57.624Z,17.00
2018-05-09T07:54:27.392Z,17.20
2018-05-09T07:56:56.376Z,17.10
2018-05-09T07:59:25.382Z,17.20
2018-05-09T08:01:54.383Z,17.20
2018-05-09T08:04:23.274Z,17.30
2018-05-09T08:06:53.684Z,17.40
2018-05-09T08:09:22.679Z,17.40
2018-05-09T08:11:51.527Z,17.50
2018-05-09T08:14:20.423Z,17.50
2018-05-09T08:16:49.296Z,17.50
2018-05-09T08:19:18.302Z,17.60
2018-05-09T08:21:47.185Z,17.70
2018-05-09T08:24:16.113Z,17.80
2018-05-09T08:26:45.074Z,17.80
2018-05-09T08:29:13.965Z,17.90
2018-05-09T08:31:43.078Z,18.00
2018-05-09T08:34:11.864Z,18.00
2018-05-09T08:36:40.760Z,18.10
2018-05-09T08:39:09.639Z,18.20
2018-05-09T08:41:38.531Z,18.20
2018-05-09T08:44:07.478Z,18.30
2018-05-09T08:46:36.387Z,18.40
2018-05-09T08:49:05.316Z,18.50
2018-05-09T08:51:34.573Z,18.60
2018-05-09T08:54:03.633Z,18.70
2018-05-09T08:56:34.107Z,18.80
2018-05-09T08:59:03.005Z,18.80
2018-05-09T09:01:31.903Z,18.90
2018-05-09T09:04:00.817Z,18.90
2018-05-09T09:06:29.835Z,19.00
2018-05-09T09:08:58.699Z,18.90
2018-05-09T09:11:27.556Z,19.00
2018-05-09T09:13:56.428Z,19.10
2018-05-09T09:16:25.640Z,19.10
2018-05-09T09:18:54.619Z,19.30
2018-05-09T09:21:23.516Z,19.40
2018-05-09T09:23:52.399Z,19.50
2018-05-09T09:26:21.273Z,19.60
2018-05-09T09:28:50.171Z,19.70
2018-05-09T09:31:19.110Z,19.80
2018-05-09T09:33:48.090Z,19.90
2018-05-09T09:36:16.960Z,19.90
2018-05-09T09:38:45.875Z,19.90
2018-05-09T09:41:14.740Z,19.90
2018-05-09T09:43:43.630Z,20.00
2018-05-09T09:46:12.549Z,20.10
2018-05-09T09:48:42.923Z,20.20
2018-05-09T09:51:11.827Z,20.20
2018-05-09T09:53:40.720Z,20.30
2018-05-09T09:56:09.613Z,20.40
2018-05-09T09:58:38.527Z,20.40
2018-05-09T10:01:07.421Z,20.50
2018-05-09T10:03:36.304Z,20.40
2018-05-09T10:06:05.292Z,20.40
2018-05-09T10:08:34.174Z,20.40
2018-05-09T10:11:03.050Z,20.50
2018-05-09T10:13:31.966Z,20.60
2018-05-09T10:16:00.975Z,20.90
2018-05-09T10:18:29.804Z,21.10
2018-05-09T10:20:58.670Z,21.40
2018-05-09T10:23:27.560Z,21.70
2018-05-09T10:25:56.451Z,22.00
2018-05-09T10:28:25.393Z,22.20
2018-05-09T10:30:54.364Z,22.50
2018-05-09T10:33:23.234Z,22.60
2018-05-09T10:35:52.139Z,22.60
2018-05-09T10:38:21.031Z,22.40
2018-05-09T10:40:50.003Z,22.30
2018-05-09T10:43:18.891Z,22.30
2018-05-09T10:45:47.807Z,22.50
2018-05-09T10:48:16.695Z,22.60
2018-05-09T10:50:45.739Z,22.50
2018-05-09T10:53:14.599Z,22.40
2018-05-09T10:55:43.490Z,22.50
2018-05-09T10:58:12.463Z,22.40
2018-05-09T11:00:41.350Z,22.30
2018-05-09T11:03:10.236Z,22.20
2018-05-09T11:05:39.138Z,22.10
2018-05-09T11:08:08.136Z,22.00
2018-05-09T11:10:37.067Z,22.00
2018-05-09T11:13:05.990Z,22.20
2018-05-09T11:15:34.902Z,22.40
2018-05-09T11:18:03.867Z,22.60
2018-05-09T11:20:32.756Z,22.80
2018-05-09T11:23:01.660Z,23.10
2018-05-09T11:25:30.543Z,23.30
2018-05-09T11:27:59.453Z,23.40
2018-05-09T11:30:28.338Z,23.60
2018-05-09T11:32:57.211Z,23.90
2018-05-09T11:35:26.167Z,24.00
2018-05-09T11:37:55.837Z,24.30
2018-05-09T11:40:24.752Z,24.30
2018-05-09T11:42:54.397Z,24.40
2018-05-09T11:45:23.289Z,24.40
2018-05-09T11:47:52.185Z,24.50
2018-05-09T11:50:21.067Z,24.70
2018-05-09T11:52:49.959Z,24.80
2018-05-09T11:55:18.871Z,25.00
2018-05-09T11:57:47.735Z,25.10
2018-05-09T12:00:16.672Z,25.30
2018-05-09T12:02:45.631Z,25.40
2018-05-09T12:05:14.558Z,25.50
2018-05-09T12:07:44.220Z,25.60
2018-05-09T12:10:13.094Z,25.50
2018-05-09T12:12:41.991Z,25.70
2018-05-09T12:15:10.899Z,25.90
2018-05-09T12:17:39.828Z,26.10
2018-05-09T12:20:08.688Z,26.10
2018-05-09T12:22:37.588Z,26.20
2018-05-09T12:25:06.486Z,26.10
2018-05-09T12:27:36.146Z,25.50
2018-05-09T12:30:05.035Z,25.50
2018-05-09T12:32:33.903Z,25.40
2018-05-09T12:35:02.817Z,25.10
2018-05-09T12:37:31.727Z,24.80
2018-05-09T12:40:00.623Z,24.60
2018-05-09T12:42:29.507Z,24.40
2018-05-09T12:44:58.451Z,24.10
2018-05-09T12:47:27.369Z,23.90
2018-05-09T12:49:56.262Z,23.70
2018-05-09T12:52:25.192Z,23.50
2018-05-09T12:54:54.878Z,23.30
2018-05-09T12:57:23.791Z,23.30
2018-05-09T12:59:52.737Z,23.20
2018-05-09T13:02:21.628Z,23.20
2018-05-09T13:04:50.610Z,23.20
2018-05-09T13:07:19.509Z,23.30
2018-05-09T13:09:48.499Z,23.20
2018-05-09T13:12:17.395Z,23.20
2018-05-09T13:14:46.372Z,23.10
2018-05-09T13:17:15.304Z,23.10
2018-05-09T13:19:44.227Z,23.00
2018-05-09T13:22:13.051Z,22.90
2018-05-09T13:24:41.930Z,22.90
2018-05-09T13:27:10.816Z,22.90
2018-05-09T13:29:39.728Z,22.90
2018-05-09T13:32:08.603Z,23.00
2018-05-09T13:34:37.579Z,22.90
2018-05-09T13:37:06.480Z,22.90
2018-05-09T13:39:35.352Z,22.90
2018-05-09T13:42:04.268Z,22.90
2018-05-09T13:44:33.151Z,22.90
2018-05-09T13:47:02.052Z,22.90
2018-05-09T13:49:31.151Z,23.00
2018-05-09T13:52:00.046Z,23.10
2018-05-09T13:54:28.921Z,23.30
2018-05-09T13:56:57.781Z,23.50
2018-05-09T13:59:26.678Z,23.50
2018-05-09T14:01:55.559Z,23.50
2018-05-09T14:04:24.477Z,23.30
2018-05-09T14:06:53.345Z,23.00
2018-05-09T14:09:22.243Z,22.80
2018-05-09T14:11:51.138Z,22.40
2018-05-09T14:14:20.030Z,22.20
2018-05-09T14:16:49.012Z,21.90
2018-05-09T14:19:17.917Z,21.60
2018-05-09T14:21:46.821Z,21.40
2018-05-09T14:24:15.736Z,21.10
2018-05-09T14:26:44.599Z,20.80
2018-05-09T14:29:13.585Z,20.50
2018-05-09T14:31:42.555Z,20.30
2018-05-09T14:34:11.425Z,20.10
2018-05-09T14:36:40.339Z,20.00
2018-05-09T14:39:09.226Z,19.80
2018-05-09T14:41:38.125Z,19.60
2018-05-09T14:44:07.028Z,19.50
2018-05-09T14:46:35.973Z,19.30
2018-05-09T14:49:04.811Z,19.20
2018-05-09T14:51:35.186Z,18.90
2018-05-09T14:54:04.099Z,18.90
2018-05-09T14:56:33.007Z,18.80
2018-05-09T14:59:01.888Z,18.70
2018-05-09T15:01:30.783Z,18.70
2018-05-09T15:03:59.732Z,18.60
2018-05-09T15:06:29.402Z,18.70
2018-05-09T15:08:58.272Z,18.70
2018-05-09T15:11:27.188Z,18.70
2018-05-09T15:13:56.072Z,18.80
2018-05-09T15:16:25.876Z,18.90
2018-05-09T15:18:55.556Z,19.10
2018-05-09T15:21:24.443Z,19.10
2018-05-09T15:23:53.316Z,19.20
2018-05-09T15:26:22.226Z,19.30
2018-05-09T15:28:51.116Z,19.50
2018-05-09T15:31:20.000Z,19.60
2018-05-09T15:33:48.896Z,19.90
2018-05-09T15:36:17.773Z,20.10
2018-05-09T15:38:46.755Z,20.50
2018-05-09T15:41:15.544Z,20.80
2018-05-09T15:43:44.461Z,21.10
2018-05-09T15:46:13.341Z,21.50
2018-05-09T15:48:42.252Z,21.90
2018-05-09T15:51:11.188Z,22.30
2018-05-09T15:53:40.087Z,22.60
2018-05-09T15:56:09.085Z,23.00
2018-05-09T15:58:37.971Z,23.20
2018-05-09T16:01:06.866Z,23.70
2018-05-09T16:03:35.772Z,24.00
2018-05-09T16:06:04.663Z,24.40
2018-05-09T16:08:33.609Z,24.90
2018-05-09T16:11:03.240Z,26.10
2018-05-09T16:13:32.139Z,26.00
2018-05-09T16:16:01.123Z,26.40
2018-05-09T16:18:30.032Z,26.50
2018-05-09T16:20:58.931Z,26.30
2018-05-09T16:23:27.944Z,25.80
2018-05-09T16:25:56.922Z,25.40
2018-05-09T16:28:25.807Z,25.00
2018-05-09T16:30:54.673Z,24.60
2018-05-09T16:33:23.578Z,24.30
2018-05-09T16:35:52.478Z,24.00
2018-05-09T16:38:21.394Z,23.70
2018-05-09T16:40:51.052Z,23.20
2018-05-09T16:43:20.139Z,23.20
2018-05-09T16:45:49.041Z,23.00
2018-05-09T16:48:17.945Z,22.80
2018-05-09T16:50:47.123Z,22.60
2018-05-09T16:53:16.098Z,22.40
2018-05-09T16:55:44.919Z,22.30
2018-05-09T16:58:13.839Z,22.20
2018-05-09T17:00:42.760Z,22.20
2018-05-09T17:03:11.668Z,22.10
2018-05-09T17:05:40.592Z,21.90
2018-05-09T17:08:09.487Z,21.90
2018-05-09T17:10:39.228Z,21.60
2018-05-09T17:13:08.265Z,21.60
2018-05-09T17:15:37.100Z,21.50
2018-05-09T17:18:06.757Z,21.30
2018-05-09T17:20:35.644Z,21.30
2018-05-09T17:23:04.550Z,21.30
2018-05-09T17:25:33.439Z,21.20
2018-05-09T17:28:02.352Z,21.10
2018-05-09T17:30:32.116Z,21.00
2018-05-09T17:33:00.944Z,21.00
2018-05-09T17:35:29.912Z,21.00
2018-05-09T17:37:58.804Z,20.90
2018-05-09T17:40:27.698Z,20.80
2018-05-09T17:42:56.575Z,20.70
2018-05-09T17:45:25.442Z,20.50
2018-05-09T17:47:54.396Z,20.50
2018-05-09T17:50:23.252Z,20.40
2018-05-09T17:52:52.182Z,20.30
2018-05-09T17:55:21.113Z,20.30
2018-05-09T17:57:50.834Z,20.20
2018-05-09T18:00:19.736Z,20.10
2018-05-09T18:02:48.644Z,20.00
2018-05-09T18:05:18.395Z,19.90
2018-05-09T18:07:47.279Z,19.80
2018-05-09T18:10:16.180Z,19.80
2018-05-09T18:12:45.165Z,19.70
2018-05-09T18:15:14.044Z,19.60
2018-05-09T18:17:42.944Z,19.50
2018-05-09T18:20:11.851Z,19.30
2018-05-09T18:22:40.876Z,19.20
2018-05-09T18:25:09.849Z,19.00
2018-05-09T18:27:38.863Z,18.90
2018-05-09T18:30:07.758Z,18.70
2018-05-09T18:32:37.412Z,18.40
2018-05-09T18:35:06.317Z,18.40
2018-05-09T18:37:35.296Z,18.30
2018-05-09T18:40:04.324Z,18.10
2018-05-09T18:42:33.310Z,18.00
2018-05-09T18:45:02.965Z,17.80
2018-05-09T18:47:31.933Z,17.70
2018-05-09T18:50:02.430Z,17.60
2018-05-09T18:52:31.320Z,17.50
2018-05-09T18:55:00.314Z,17.50
2018-05-09T18:57:29.229Z,17.40
2018-05-09T18:59:59.002Z,17.20
2018-05-09T19:02:27.888Z,17.20
2018-05-09T19:04:56.876Z,17.10
2018-05-09T19:07:25.862Z,17.10
2018-05-09T19:09:54.836Z,17.00
2018-05-09T19:12:23.760Z,16.90
2018-05-09T19:14:52.684Z,16.80
2018-05-09T19:17:22.461Z,16.70
2018-05-09T19:19:51.385Z,16.70
2018-05-09T19:22:20.290Z,16.60
2018-05-09T19:24:49.945Z,16.60
2018-05-09T19:27:18.840Z,16.50
2018-05-09T19:29:47.768Z,16.50
2018-05-09T19:32:17.474Z,16.40
2018-05-09T19:34:46.379Z,16.30
2018-05-09T19:37:15.299Z,16.30
2018-05-09T19:39:44.266Z,16.30
2018-05-09T19:42:13.916Z,16.10
2018-05-09T19:44:42.844Z,16.10
2018-05-09T19:47:12.500Z,16.10
2018-05-09T19:49:41.397Z,16.00
2018-05-09T19:52:10.316Z,16.00
2018-05-09T19:54:39.233Z,15.90
2018-05-09T19:57:08.127Z,15.90
2018-05-09T19:59:37.066Z,15.80
2018-05-09T20:02:05.971Z,15.70
2018-05-09T20:04:35.690Z,15.60
2018-05-09T20:07:05.367Z,15.50
2018-05-09T20:09:34.290Z,15.50
2018-05-09T20:12:03.991Z,15.30
2018-05-09T20:14:32.877Z,15.30
2018-05-09T20:17:02.553Z,15.20
2018-05-09T20:19:31.446Z,15.20
2018-05-09T20:22:00.442Z,15.10
2018-05-09T20:24:29.336Z,15.00
2018-05-09T20:26:58.280Z,15.00
2018-05-09T20:29:27.181Z,14.90
2018-05-09T20:32:08.161Z,14.90
2018-05-09T20:34:37.072Z,14.80
2018-05-09T20:37:05.984Z,14.80
2018-05-09T20:39:35.711Z,14.60
2018-05-09T20:42:05.404Z,14.60
2018-05-09T20:44:34.276Z,14.60
2018-05-09T20:47:03.184Z,14.60
2018-05-09T20:49:32.894Z,14.50
2018-05-09T20:52:01.842Z,14.50
2018-05-09T20:54:30.729Z,14.40
2018-05-09T20:56:59.643Z,14.40
2018-05-09T20:59:28.555Z,14.30
2018-05-09T21:01:57.516Z,14.20
2018-05-09T21:04:26.499Z,14.20
2018-05-09T21:06:55.462Z,14.10
2018-05-09T21:09:24.351Z,14.00
2018-05-09T21:12:05.243Z,14.00
2018-05-09T21:14:34.201Z,13.90
2018-05-09T21:17:03.867Z,13.80
2018-05-09T21:19:32.845Z,13.80
2018-05-09T21:22:01.823Z,13.80
2018-05-09T21:24:30.725Z,13.80
2018-05-09T21:26:59.668Z,13.70
2018-05-09T21:29:29.307Z,13.70
2018-05-09T21:31:58.237Z,13.70
2018-05-09T21:34:27.900Z,13.60
2018-05-09T21:36:56.827Z,13.60
2018-05-09T21:39:25.721Z,13.50
2018-05-09T21:41:55.497Z,13.40
2018-05-09T21:44:24.390Z,13.40
2018-05-09T21:46:53.300Z,13.40
2018-05-09T21:49:22.203Z,13.40
2018-05-09T21:51:51.879Z,13.40
2018-05-09T21:54:20.781Z,13.40
2018-05-09T21:56:49.687Z,13.40
2018-05-09T21:59:19.461Z,13.30
2018-05-09T22:01:48.420Z,13.30
2018-05-09T22:04:17.297Z,13.30
2018-05-09T22:06:46.222Z,13.20
2018-05-09T22:09:15.215Z,13.10
2018-05-09T22:11:44.164Z,13.10
2018-05-09T22:14:13.814Z,13.00
2018-05-09T22:16:42.718Z,12.90
2018-05-09T22:19:11.610Z,12.90
2018-05-09T22:21:40.501Z,12.90
2018-05-09T22:24:09.431Z,12.90
2018-05-09T22:26:38.383Z,12.80
2018-05-09T22:29:07.264Z,12.80
2018-05-09T22:31:36.174Z,12.80
2018-05-09T22:34:05.104Z,12.80
2018-05-09T22:36:34.031Z,12.80
2018-05-09T22:39:02.927Z,12.80
2018-05-09T22:41:31.827Z,12.80
2018-05-09T22:44:00.717Z,12.70
2018-05-09T22:46:29.644Z,12.70
2018-05-09T22:48:59.303Z,12.60
2018-05-09T22:51:28.201Z,12.60
2018-05-09T22:53:57.086Z,12.60
2018-05-09T22:56:26.931Z,12.50
2018-05-09T22:58:55.852Z,12.50
2018-05-09T23:01:24.720Z,12.50
2018-05-09T23:03:53.634Z,12.40
2018-05-09T23:06:22.524Z,12.50
2018-05-09T23:08:51.433Z,12.50
2018-05-09T23:11:20.280Z,12.50
2018-05-09T23:13:49.195Z,12.40
2018-05-09T23:16:18.071Z,12.50
2018-05-09T23:18:46.954Z,12.40
2018-05-09T23:21:15.834Z,12.40
2018-05-09T23:23:44.757Z,12.40
2018-05-09T23:26:13.628Z,12.40
2018-05-09T23:28:42.542Z,12.40
2018-05-09T23:31:11.424Z,12.40
2018-05-09T23:33:40.343Z,12.30
2018-05-09T23:36:09.220Z,12.30
2018-05-09T23:38:38.133Z,12.30
2018-05-09T23:41:07.792Z,12.30
2018-05-09T23:43:36.706Z,12.30
2018-05-09T23:46:05.588Z,12.20
2018-05-09T23:48:34.502Z,12.20
2018-05-09T23:51:03.388Z,12.20
2018-05-09T23:53:32.283Z,12.10
2018-05-09T23:56:01.932Z,12.20
2018-05-09T23:58:30.830Z,12.10
